sensor_id;sensor_type;location;lat;lon;timestamp;P1;durP1;ratioP1;P2;durP2;ratioP2
65145;SDS011;51730;56.950;24.126;2022-08-25T00:01:28;16.95;;;6.75;;
65145;SDS011;51730;56.950;24.126;2022-08-25T00:03:58;15.18;;;6.40;;
65145;SDS011;51730;56.950;24.126;2022-08-25T00:06:27;16.05;;;6.47;;
65145;SDS011;51730;56.950;24.126;2022-08-25T00:08:54;12.93;;;6.50;;
65145;SDS011;51730;56.950;24.126;2022-08-25T00:11:26;16.63;;;6.95;;
65145;SDS011;51730;56.950;24.126;2022-08-25T00:13:57;14.00;;;6.10;;
65145;SDS011;51730;56.950;24.126;2022-08-25T00:16:27;16.52;;;6.50;;
65145;SDS011;51730;56.950;24.126;2022-08-25T00:18:57;12.07;;;6.47;;
65145;SDS011;51730;56.950;24.126;2022-08-25T00:21:26;18.30;;;7.25;;
65145;SDS011;51730;56.950;24.126;2022-08-25T00:23:54;16.10;;;7.45;;
65145;SDS011;51730;56.950;24.126;2022-08-25T00:26:22;19.42;;;6.75;;
65145;SDS011;51730;56.950;24.126;2022-08-25T00:28:49;12.85;;;6.22;;
65145;SDS011;51730;56.950;24.126;2022-08-25T00:31:20;15.02;;;5.75;;
65145;SDS011;51730;56.950;24.126;2022-08-25T00:34:03;11.13;;;5.72;;
65145;SDS011;51730;56.950;24.126;2022-08-25T00:36:33;16.60;;;6.50;;
65145;SDS011;51730;56.950;24.126;2022-08-25T00:39:00;14.60;;;6.18;;
65145;SDS011;51730;56.950;24.126;2022-08-25T00:41:27;12.85;;;5.85;;
65145;SDS011;51730;56.950;24.126;2022-08-25T00:43:58;12.45;;;5.55;;
65145;SDS011;51730;56.950;24.126;2022-08-25T00:46:28;17.55;;;5.97;;
65145;SDS011;51730;56.950;24.126;2022-08-25T00:49:07;11.13;;;5.13;;
65145;SDS011;51730;56.950;24.126;2022-08-25T00:54:40;11.60;;;5.68;;
65145;SDS011;51730;56.950;24.126;2022-08-25T00:57:10;8.40;;;5.43;;
65145;SDS011;51730;56.950;24.126;2022-08-25T00:59:41;10.65;;;5.72;;
65145;SDS011;51730;56.950;24.126;2022-08-25T01:02:09;9.32;;;5.72;;
65145;SDS011;51730;56.950;24.126;2022-08-25T01:04:39;14.82;;;5.95;;
65145;SDS011;51730;56.950;24.126;2022-08-25T01:07:15;9.57;;;5.57;;
65145;SDS011;51730;56.950;24.126;2022-08-25T01:09:43;15.10;;;5.60;;
65145;SDS011;51730;56.950;24.126;2022-08-25T01:12:14;13.27;;;5.53;;
65145;SDS011;51730;56.950;24.126;2022-08-25T01:14:42;12.77;;;5.28;;
65145;SDS011;51730;56.950;24.126;2022-08-25T01:17:12;11.20;;;5.30;;
65145;SDS011;51730;56.950;24.126;2022-08-25T01:19:39;9.95;;;5.20;;
65145;SDS011;51730;56.950;24.126;2022-08-25T01:22:07;12.27;;;5.90;;
65145;SDS011;51730;56.950;24.126;2022-08-25T01:24:53;12.80;;;5.53;;
65145;SDS011;51730;56.950;24.126;2022-08-25T01:27:29;12.73;;;7.13;;
65145;SDS011;51730;56.950;24.126;2022-08-25T01:29:56;10.35;;;5.63;;
65145;SDS011;51730;56.950;24.126;2022-08-25T01:32:23;13.07;;;5.80;;
65145;SDS011;51730;56.950;24.126;2022-08-25T01:34:50;13.43;;;5.70;;
65145;SDS011;51730;56.950;24.126;2022-08-25T01:37:17;13.48;;;5.93;;
65145;SDS011;51730;56.950;24.126;2022-08-25T01:39:44;12.25;;;5.22;;
65145;SDS011;51730;56.950;24.126;2022-08-25T01:45:20;11.50;;;5.45;;
65145;SDS011;51730;56.950;24.126;2022-08-25T01:47:47;12.93;;;6.45;;
65145;SDS011;51730;56.950;24.126;2022-08-25T01:50:14;9.90;;;4.97;;
65145;SDS011;51730;56.950;24.126;2022-08-25T01:52:46;19.60;;;5.57;;
65145;SDS011;51730;56.950;24.126;2022-08-25T01:55:34;13.32;;;5.82;;
65145;SDS011;51730;56.950;24.126;2022-08-25T01:58:24;17.52;;;6.63;;
65145;SDS011;51730;56.950;24.126;2022-08-25T02:00:54;17.30;;;6.30;;
65145;SDS011;51730;56.950;24.126;2022-08-25T02:03:23;18.40;;;6.15;;
65145;SDS011;51730;56.950;24.126;2022-08-25T02:05:51;19.33;;;6.03;;
65145;SDS011;51730;56.950;24.126;2022-08-25T02:08:20;11.85;;;6.03;;
65145;SDS011;51730;56.950;24.126;2022-08-25T02:10:49;13.55;;;5.88;;
65145;SDS011;51730;56.950;24.126;2022-08-25T02:13:17;18.42;;;6.28;;
65145;SDS011;51730;56.950;24.126;2022-08-25T02:15:53;17.15;;;5.47;;
65145;SDS011;51730;56.950;24.126;2022-08-25T02:18:21;13.93;;;6.07;;
65145;SDS011;51730;56.950;24.126;2022-08-25T02:20:49;10.45;;;5.07;;
65145;SDS011;51730;56.950;24.126;2022-08-25T02:23:16;11.70;;;6.10;;
65145;SDS011;51730;56.950;24.126;2022-08-25T02:25:43;16.98;;;6.47;;
65145;SDS011;51730;56.950;24.126;2022-08-25T02:28:10;16.77;;;6.45;;
65145;SDS011;51730;56.950;24.126;2022-08-25T02:30:38;17.02;;;6.28;;
65145;SDS011;51730;56.950;24.126;2022-08-25T02:33:06;14.70;;;5.78;;
65145;SDS011;51730;56.950;24.126;2022-08-25T02:35:34;15.15;;;6.28;;
65145;SDS011;51730;56.950;24.126;2022-08-25T02:38:01;12.57;;;5.18;;
65145;SDS011;51730;56.950;24.126;2022-08-25T02:40:29;15.57;;;5.75;;
65145;SDS011;51730;56.950;24.126;2022-08-25T02:42:56;14.27;;;5.20;;
65145;SDS011;51730;56.950;24.126;2022-08-25T02:45:23;14.68;;;4.93;;
65145;SDS011;51730;56.950;24.126;2022-08-25T02:47:50;13.20;;;5.95;;
65145;SDS011;51730;56.950;24.126;2022-08-25T02:50:17;18.08;;;5.53;;
65145;SDS011;51730;56.950;24.126;2022-08-25T02:52:44;11.32;;;5.50;;
65145;SDS011;51730;56.950;24.126;2022-08-25T02:55:11;18.20;;;7.00;;
65145;SDS011;51730;56.950;24.126;2022-08-25T02:57:40;15.60;;;6.43;;
65145;SDS011;51730;56.950;24.126;2022-08-25T03:00:11;12.80;;;5.88;;
65145;SDS011;51730;56.950;24.126;2022-08-25T03:02:40;13.00;;;5.75;;
65145;SDS011;51730;56.950;24.126;2022-08-25T03:05:09;18.60;;;5.45;;
65145;SDS011;51730;56.950;24.126;2022-08-25T03:07:37;14.13;;;5.43;;
65145;SDS011;51730;56.950;24.126;2022-08-25T03:10:09;19.85;;;5.47;;
65145;SDS011;51730;56.950;24.126;2022-08-25T03:12:38;14.60;;;5.30;;
65145;SDS011;51730;56.950;24.126;2022-08-25T03:15:09;12.05;;;5.82;;
65145;SDS011;51730;56.950;24.126;2022-08-25T03:17:38;15.73;;;5.28;;
65145;SDS011;51730;56.950;24.126;2022-08-25T03:20:10;15.00;;;5.65;;
65145;SDS011;51730;56.950;24.126;2022-08-25T03:22:37;12.45;;;5.97;;
65145;SDS011;51730;56.950;24.126;2022-08-25T03:25:05;11.85;;;5.18;;
65145;SDS011;51730;56.950;24.126;2022-08-25T03:27:51;13.07;;;5.85;;
65145;SDS011;51730;56.950;24.126;2022-08-25T03:30:18;14.98;;;6.65;;
65145;SDS011;51730;56.950;24.126;2022-08-25T03:32:45;14.88;;;6.13;;
65145;SDS011;51730;56.950;24.126;2022-08-25T03:35:13;13.55;;;5.70;;
65145;SDS011;51730;56.950;24.126;2022-08-25T03:37:40;15.85;;;5.68;;
65145;SDS011;51730;56.950;24.126;2022-08-25T03:40:09;17.92;;;5.65;;
65145;SDS011;51730;56.950;24.126;2022-08-25T03:42:42;15.55;;;5.45;;
65145;SDS011;51730;56.950;24.126;2022-08-25T03:45:11;14.02;;;5.50;;
65145;SDS011;51730;56.950;24.126;2022-08-25T03:47:39;15.45;;;5.65;;
65145;SDS011;51730;56.950;24.126;2022-08-25T03:50:08;18.13;;;6.45;;
65145;SDS011;51730;56.950;24.126;2022-08-25T03:52:36;14.85;;;5.65;;
65145;SDS011;51730;56.950;24.126;2022-08-25T03:57:36;13.07;;;5.45;;
65145;SDS011;51730;56.950;24.126;2022-08-25T04:00:07;16.27;;;5.57;;
65145;SDS011;51730;56.950;24.126;2022-08-25T04:02:35;19.02;;;5.93;;
65145;SDS011;51730;56.950;24.126;2022-08-25T04:05:02;13.50;;;5.90;;
65145;SDS011;51730;56.950;24.126;2022-08-25T04:07:30;17.33;;;5.90;;
65145;SDS011;51730;56.950;24.126;2022-08-25T04:09:56;14.00;;;5.53;;
65145;SDS011;51730;56.950;24.126;2022-08-25T04:12:23;19.33;;;6.32;;
65145;SDS011;51730;56.950;24.126;2022-08-25T04:14:50;21.33;;;6.55;;
65145;SDS011;51730;56.950;24.126;2022-08-25T04:17:18;19.75;;;6.60;;
65145;SDS011;51730;56.950;24.126;2022-08-25T04:19:45;16.45;;;6.32;;
65145;SDS011;51730;56.950;24.126;2022-08-25T04:22:12;13.45;;;5.45;;
65145;SDS011;51730;56.950;24.126;2022-08-25T04:24:39;14.85;;;6.40;;
65145;SDS011;51730;56.950;24.126;2022-08-25T04:27:06;14.32;;;6.07;;
65145;SDS011;51730;56.950;24.126;2022-08-25T04:29:33;22.25;;;6.90;;
65145;SDS011;51730;56.950;24.126;2022-08-25T04:32:00;20.38;;;7.55;;
65145;SDS011;51730;56.950;24.126;2022-08-25T04:34:27;20.48;;;6.85;;
65145;SDS011;51730;56.950;24.126;2022-08-25T04:37:00;14.68;;;6.72;;
65145;SDS011;51730;56.950;24.126;2022-08-25T04:39:28;24.65;;;7.50;;
65145;SDS011;51730;56.950;24.126;2022-08-25T04:41:56;15.38;;;6.85;;
65145;SDS011;51730;56.950;24.126;2022-08-25T04:44:23;22.20;;;7.93;;
65145;SDS011;51730;56.950;24.126;2022-08-25T04:46:50;15.63;;;6.43;;
65145;SDS011;51730;56.950;24.126;2022-08-25T04:49:17;16.90;;;6.68;;
65145;SDS011;51730;56.950;24.126;2022-08-25T04:51:44;21.52;;;6.63;;
65145;SDS011;51730;56.950;24.126;2022-08-25T04:54:12;14.98;;;7.20;;
65145;SDS011;51730;56.950;24.126;2022-08-25T04:56:42;18.40;;;7.32;;
65145;SDS011;51730;56.950;24.126;2022-08-25T04:59:10;17.17;;;6.15;;
65145;SDS011;51730;56.950;24.126;2022-08-25T05:01:39;16.58;;;6.10;;
65145;SDS011;51730;56.950;24.126;2022-08-25T05:04:08;15.75;;;6.05;;
65145;SDS011;51730;56.950;24.126;2022-08-25T05:06:54;13.93;;;5.90;;
65145;SDS011;51730;56.950;24.126;2022-08-25T05:09:21;13.55;;;6.90;;
65145;SDS011;51730;56.950;24.126;2022-08-25T05:11:50;15.60;;;6.35;;
65145;SDS011;51730;56.950;24.126;2022-08-25T05:14:18;15.40;;;6.43;;
65145;SDS011;51730;56.950;24.126;2022-08-25T05:16:51;17.85;;;6.57;;
65145;SDS011;51730;56.950;24.126;2022-08-25T05:19:19;22.33;;;6.60;;
65145;SDS011;51730;56.950;24.126;2022-08-25T05:21:46;18.77;;;6.95;;
65145;SDS011;51730;56.950;24.126;2022-08-25T05:24:13;16.83;;;5.95;;
65145;SDS011;51730;56.950;24.126;2022-08-25T05:26:42;17.30;;;5.80;;
65145;SDS011;51730;56.950;24.126;2022-08-25T05:29:09;18.13;;;7.50;;
65145;SDS011;51730;56.950;24.126;2022-08-25T05:31:36;13.07;;;6.18;;
65145;SDS011;51730;56.950;24.126;2022-08-25T05:34:08;15.07;;;5.65;;
65145;SDS011;51730;56.950;24.126;2022-08-25T05:36:35;22.70;;;6.50;;
65145;SDS011;51730;56.950;24.126;2022-08-25T05:39:03;17.17;;;6.50;;
65145;SDS011;51730;56.950;24.126;2022-08-25T05:41:30;15.57;;;6.53;;
65145;SDS011;51730;56.950;24.126;2022-08-25T05:43:58;14.70;;;6.15;;
65145;SDS011;51730;56.950;24.126;2022-08-25T05:46:25;11.77;;;6.05;;
65145;SDS011;51730;56.950;24.126;2022-08-25T05:48:56;16.55;;;6.05;;
65145;SDS011;51730;56.950;24.126;2022-08-25T05:51:24;12.27;;;5.97;;
65145;SDS011;51730;56.950;24.126;2022-08-25T05:53:52;13.60;;;6.10;;
65145;SDS011;51730;56.950;24.126;2022-08-25T05:56:22;12.15;;;6.00;;
65145;SDS011;51730;56.950;24.126;2022-08-25T05:58:50;12.37;;;5.60;;
65145;SDS011;51730;56.950;24.126;2022-08-25T06:01:21;13.63;;;5.47;;
65145;SDS011;51730;56.950;24.126;2022-08-25T06:04:15;10.20;;;5.90;;
65145;SDS011;51730;56.950;24.126;2022-08-25T06:06:43;14.40;;;6.28;;
65145;SDS011;51730;56.950;24.126;2022-08-25T06:09:10;17.10;;;5.72;;
65145;SDS011;51730;56.950;24.126;2022-08-25T06:11:40;11.02;;;5.00;;
65145;SDS011;51730;56.950;24.126;2022-08-25T06:14:31;14.10;;;5.65;;
65145;SDS011;51730;56.950;24.126;2022-08-25T06:16:58;15.23;;;5.50;;
65145;SDS011;51730;56.950;24.126;2022-08-25T06:19:26;16.98;;;6.22;;
65145;SDS011;51730;56.950;24.126;2022-08-25T06:21:56;15.15;;;6.22;;
65145;SDS011;51730;56.950;24.126;2022-08-25T06:24:24;16.90;;;5.93;;
65145;SDS011;51730;56.950;24.126;2022-08-25T06:26:52;13.15;;;5.43;;
65145;SDS011;51730;56.950;24.126;2022-08-25T06:29:19;12.85;;;5.57;;
65145;SDS011;51730;56.950;24.126;2022-08-25T06:31:48;18.98;;;6.88;;
65145;SDS011;51730;56.950;24.126;2022-08-25T06:34:16;13.73;;;5.97;;
65145;SDS011;51730;56.950;24.126;2022-08-25T06:36:44;15.18;;;7.43;;
65145;SDS011;51730;56.950;24.126;2022-08-25T06:39:14;15.57;;;5.75;;
65145;SDS011;51730;56.950;24.126;2022-08-25T06:41:41;12.13;;;5.47;;
65145;SDS011;51730;56.950;24.126;2022-08-25T06:44:09;14.63;;;6.20;;
65145;SDS011;51730;56.950;24.126;2022-08-25T06:46:37;12.07;;;6.38;;
65145;SDS011;51730;56.950;24.126;2022-08-25T06:49:05;13.27;;;5.70;;
65145;SDS011;51730;56.950;24.126;2022-08-25T06:51:32;16.70;;;5.53;;
65145;SDS011;51730;56.950;24.126;2022-08-25T06:54:01;14.50;;;5.90;;
65145;SDS011;51730;56.950;24.126;2022-08-25T06:56:30;15.45;;;5.65;;
65145;SDS011;51730;56.950;24.126;2022-08-25T06:58:59;19.92;;;5.50;;
65145;SDS011;51730;56.950;24.126;2022-08-25T07:01:27;11.80;;;6.10;;
65145;SDS011;51730;56.950;24.126;2022-08-25T07:04:07;14.85;;;6.47;;
65145;SDS011;51730;56.950;24.126;2022-08-25T07:06:38;14.95;;;6.03;;
65145;SDS011;51730;56.950;24.126;2022-08-25T07:09:07;12.90;;;5.45;;
65145;SDS011;51730;56.950;24.126;2022-08-25T07:11:34;17.08;;;6.55;;
65145;SDS011;51730;56.950;24.126;2022-08-25T07:14:02;15.73;;;6.47;;
65145;SDS011;51730;56.950;24.126;2022-08-25T07:16:31;14.13;;;5.95;;
65145;SDS011;51730;56.950;24.126;2022-08-25T07:19:00;12.57;;;5.82;;
65145;SDS011;51730;56.950;24.126;2022-08-25T07:21:29;14.07;;;6.40;;
65145;SDS011;51730;56.950;24.126;2022-08-25T07:24:03;16.52;;;5.60;;
65145;SDS011;51730;56.950;24.126;2022-08-25T07:26:32;16.25;;;6.20;;
65145;SDS011;51730;56.950;24.126;2022-08-25T07:31:32;13.00;;;5.70;;
65145;SDS011;51730;56.950;24.126;2022-08-25T07:34:00;13.27;;;6.70;;
65145;SDS011;51730;56.950;24.126;2022-08-25T07:36:46;19.73;;;6.65;;
65145;SDS011;51730;56.950;24.126;2022-08-25T07:39:13;21.23;;;6.82;;
65145;SDS011;51730;56.950;24.126;2022-08-25T07:41:40;12.43;;;6.32;;
65145;SDS011;51730;56.950;24.126;2022-08-25T07:44:08;16.67;;;6.50;;
65145;SDS011;51730;56.950;24.126;2022-08-25T07:46:36;11.80;;;6.00;;
65145;SDS011;51730;56.950;24.126;2022-08-25T07:49:04;12.63;;;6.10;;
65145;SDS011;51730;56.950;24.126;2022-08-25T07:51:42;15.55;;;6.82;;
65145;SDS011;51730;56.950;24.126;2022-08-25T07:54:29;16.58;;;7.13;;
65145;SDS011;51730;56.950;24.126;2022-08-25T07:57:00;18.20;;;6.78;;
65145;SDS011;51730;56.950;24.126;2022-08-25T07:59:28;14.23;;;6.53;;
65145;SDS011;51730;56.950;24.126;2022-08-25T08:02:05;16.67;;;6.80;;
65145;SDS011;51730;56.950;24.126;2022-08-25T08:04:44;11.27;;;5.50;;
65145;SDS011;51730;56.950;24.126;2022-08-25T08:07:15;16.70;;;6.47;;
65145;SDS011;51730;56.950;24.126;2022-08-25T08:09:44;16.70;;;7.25;;
65145;SDS011;51730;56.950;24.126;2022-08-25T08:12:11;17.50;;;6.38;;
65145;SDS011;51730;56.950;24.126;2022-08-25T08:14:40;19.95;;;7.78;;
65145;SDS011;51730;56.950;24.126;2022-08-25T08:17:11;16.73;;;6.95;;
65145;SDS011;51730;56.950;24.126;2022-08-25T08:19:38;13.38;;;6.72;;
65145;SDS011;51730;56.950;24.126;2022-08-25T08:22:10;16.90;;;6.22;;
65145;SDS011;51730;56.950;24.126;2022-08-25T08:24:40;17.70;;;7.00;;
65145;SDS011;51730;56.950;24.126;2022-08-25T08:27:21;17.08;;;7.47;;
65145;SDS011;51730;56.950;24.126;2022-08-25T08:29:48;20.30;;;7.03;;
65145;SDS011;51730;56.950;24.126;2022-08-25T08:32:15;17.92;;;7.03;;
65145;SDS011;51730;56.950;24.126;2022-08-25T08:34:44;21.23;;;7.22;;
65145;SDS011;51730;56.950;24.126;2022-08-25T08:37:16;20.00;;;7.72;;
65145;SDS011;51730;56.950;24.126;2022-08-25T08:39:48;18.65;;;8.95;;
65145;SDS011;51730;56.950;24.126;2022-08-25T08:45:03;19.83;;;7.53;;
65145;SDS011;51730;56.950;24.126;2022-08-25T08:48:15;12.73;;;7.25;;
65145;SDS011;51730;56.950;24.126;2022-08-25T08:54:09;19.33;;;8.85;;
65145;SDS011;51730;56.950;24.126;2022-08-25T08:56:46;22.05;;;7.80;;
65145;SDS011;51730;56.950;24.126;2022-08-25T08:59:20;20.30;;;7.75;;
65145;SDS011;51730;56.950;24.126;2022-08-25T09:01:59;19.73;;;7.70;;
65145;SDS011;51730;56.950;24.126;2022-08-25T09:04:42;21.73;;;8.15;;
65145;SDS011;51730;56.950;24.126;2022-08-25T09:07:16;16.90;;;8.50;;
65145;SDS011;51730;56.950;24.126;2022-08-25T09:09:47;17.60;;;7.85;;
65145;SDS011;51730;56.950;24.126;2022-08-25T09:12:36;17.85;;;6.60;;
65145;SDS011;51730;56.950;24.126;2022-08-25T09:17:52;20.77;;;7.97;;
65145;SDS011;51730;56.950;24.126;2022-08-25T09:20:37;19.10;;;8.02;;
65145;SDS011;51730;56.950;24.126;2022-08-25T09:23:28;24.17;;;7.43;;
65145;SDS011;51730;56.950;24.126;2022-08-25T09:29:35;20.67;;;7.80;;
65145;SDS011;51730;56.950;24.126;2022-08-25T09:32:15;20.80;;;8.57;;
65145;SDS011;51730;56.950;24.126;2022-08-25T09:34:56;29.65;;;14.32;;
65145;SDS011;51730;56.950;24.126;2022-08-25T09:37:24;23.40;;;9.57;;
65145;SDS011;51730;56.950;24.126;2022-08-25T09:39:53;22.98;;;11.10;;
65145;SDS011;51730;56.950;24.126;2022-08-25T09:42:22;27.48;;;10.63;;
65145;SDS011;51730;56.950;24.126;2022-08-25T09:45:15;18.17;;;8.32;;
65145;SDS011;51730;56.950;24.126;2022-08-25T09:47:55;20.67;;;9.03;;
65145;SDS011;51730;56.950;24.126;2022-08-25T09:50:22;20.17;;;8.57;;
65145;SDS011;51730;56.950;24.126;2022-08-25T09:52:49;21.23;;;8.50;;
65145;SDS011;51730;56.950;24.126;2022-08-25T09:55:26;21.10;;;9.48;;
65145;SDS011;51730;56.950;24.126;2022-08-25T09:57:58;27.17;;;14.18;;
65145;SDS011;51730;56.950;24.126;2022-08-25T10:03:05;16.48;;;8.23;;
65145;SDS011;51730;56.950;24.126;2022-08-25T10:05:40;21.45;;;8.15;;
65145;SDS011;51730;56.950;24.126;2022-08-25T10:09:07;20.52;;;8.25;;
65145;SDS011;51730;56.950;24.126;2022-08-25T10:11:09;19.05;;;8.23;;
65145;SDS011;51730;56.950;24.126;2022-08-25T10:18:46;18.85;;;8.18;;
65145;SDS011;51730;56.950;24.126;2022-08-25T10:21:33;30.58;;;9.07;;
65145;SDS011;51730;56.950;24.126;2022-08-25T10:24:00;25.23;;;8.77;;
65145;SDS011;51730;56.950;24.126;2022-08-25T10:32:04;18.52;;;9.75;;
65145;SDS011;51730;56.950;24.126;2022-08-25T10:34:48;20.13;;;8.20;;
65145;SDS011;51730;56.950;24.126;2022-08-25T10:37:22;21.88;;;8.60;;
65145;SDS011;51730;56.950;24.126;2022-08-25T10:42:59;21.48;;;8.30;;
65145;SDS011;51730;56.950;24.126;2022-08-25T10:45:37;21.45;;;8.52;;
65145;SDS011;51730;56.950;24.126;2022-08-25T10:51:30;18.60;;;8.95;;
65145;SDS011;51730;56.950;24.126;2022-08-25T11:05:46;20.17;;;8.80;;
65145;SDS011;51730;56.950;24.126;2022-08-25T11:08:53;15.65;;;8.30;;
65145;SDS011;51730;56.950;24.126;2022-08-25T11:11:36;17.33;;;8.20;;
65145;SDS011;51730;56.950;24.126;2022-08-25T11:19:49;17.70;;;8.48;;
65145;SDS011;51730;56.950;24.126;2022-08-25T11:30:15;19.30;;;9.85;;
65145;SDS011;51730;56.950;24.126;2022-08-25T11:32:46;20.95;;;10.02;;
65145;SDS011;51730;56.950;24.126;2022-08-25T11:35:17;13.60;;;8.65;;
65145;SDS011;51730;56.950;24.126;2022-08-25T11:43:05;17.77;;;9.10;;
65145;SDS011;51730;56.950;24.126;2022-08-25T11:51:32;16.55;;;8.73;;
65145;SDS011;51730;56.950;24.126;2022-08-25T11:56:40;25.85;;;8.68;;
65145;SDS011;51730;56.950;24.126;2022-08-25T11:59:07;18.10;;;8.90;;
65145;SDS011;51730;56.950;24.126;2022-08-25T12:04:56;20.10;;;8.60;;
65145;SDS011;51730;56.950;24.126;2022-08-25T12:37:19;13.75;;;7.57;;
65145;SDS011;51730;56.950;24.126;2022-08-25T12:42:59;18.23;;;7.68;;
65145;SDS011;51730;56.950;24.126;2022-08-25T12:47:51;20.02;;;8.70;;
65145;SDS011;51730;56.950;24.126;2022-08-25T12:55:58;17.13;;;8.77;;
65145;SDS011;51730;56.950;24.126;2022-08-25T12:58:46;14.88;;;8.55;;
65145;SDS011;51730;56.950;24.126;2022-08-25T13:01:42;16.92;;;8.80;;
65145;SDS011;51730;56.950;24.126;2022-08-25T13:10:55;16.13;;;7.63;;
65145;SDS011;51730;56.950;24.126;2022-08-25T13:16:31;16.73;;;8.85;;
65145;SDS011;51730;56.950;24.126;2022-08-25T13:19:01;18.33;;;8.27;;
65145;SDS011;51730;56.950;24.126;2022-08-25T13:21:32;17.42;;;8.30;;
65145;SDS011;51730;56.950;24.126;2022-08-25T13:24:05;18.33;;;7.10;;
65145;SDS011;51730;56.950;24.126;2022-08-25T13:26:44;17.25;;;8.10;;
65145;SDS011;51730;56.950;24.126;2022-08-25T13:32:06;16.15;;;8.25;;
65145;SDS011;51730;56.950;24.126;2022-08-25T13:34:38;20.83;;;7.88;;
65145;SDS011;51730;56.950;24.126;2022-08-25T13:40:06;17.42;;;8.15;;
65145;SDS011;51730;56.950;24.126;2022-08-25T13:42:44;16.23;;;8.00;;
65145;SDS011;51730;56.950;24.126;2022-08-25T13:45:22;19.08;;;7.47;;
65145;SDS011;51730;56.950;24.126;2022-08-25T13:47:52;16.48;;;7.28;;
65145;SDS011;51730;56.950;24.126;2022-08-25T13:50:28;15.15;;;8.65;;
65145;SDS011;51730;56.950;24.126;2022-08-25T13:58:18;17.35;;;7.63;;
65145;SDS011;51730;56.950;24.126;2022-08-25T14:01:10;16.52;;;7.70;;
65145;SDS011;51730;56.950;24.126;2022-08-25T14:04:44;19.13;;;7.63;;
65145;SDS011;51730;56.950;24.126;2022-08-25T14:07:04;21.27;;;8.13;;
65145;SDS011;51730;56.950;24.126;2022-08-25T14:09:50;15.70;;;7.85;;
65145;SDS011;51730;56.950;24.126;2022-08-25T14:12:28;14.10;;;7.40;;
65145;SDS011;51730;56.950;24.126;2022-08-25T14:14:59;18.75;;;8.10;;
65145;SDS011;51730;56.950;24.126;2022-08-25T14:17:29;14.40;;;6.93;;
65145;SDS011;51730;56.950;24.126;2022-08-25T14:20:06;14.45;;;7.10;;
65145;SDS011;51730;56.950;24.126;2022-08-25T14:22:55;13.05;;;7.07;;
65145;SDS011;51730;56.950;24.126;2022-08-25T14:25:25;17.15;;;7.85;;
65145;SDS011;51730;56.950;24.126;2022-08-25T14:30:34;15.02;;;7.20;;
65145;SDS011;51730;56.950;24.126;2022-08-25T14:33:08;15.70;;;8.10;;
65145;SDS011;51730;56.950;24.126;2022-08-25T14:35:36;12.57;;;7.22;;
65145;SDS011;51730;56.950;24.126;2022-08-25T14:38:06;17.90;;;7.57;;
65145;SDS011;51730;56.950;24.126;2022-08-25T14:40:36;13.27;;;7.20;;
65145;SDS011;51730;56.950;24.126;2022-08-25T14:43:05;10.57;;;7.15;;
65145;SDS011;51730;56.950;24.126;2022-08-25T14:45:35;17.48;;;7.32;;
65145;SDS011;51730;56.950;24.126;2022-08-25T14:48:09;14.17;;;7.70;;
65145;SDS011;51730;56.950;24.126;2022-08-25T14:50:42;13.25;;;6.65;;
65145;SDS011;51730;56.950;24.126;2022-08-25T14:53:11;11.55;;;6.90;;
65145;SDS011;51730;56.950;24.126;2022-08-25T14:55:38;18.23;;;8.75;;
65145;SDS011;51730;56.950;24.126;2022-08-25T14:58:06;14.43;;;7.95;;
65145;SDS011;51730;56.950;24.126;2022-08-25T15:00:36;14.50;;;8.85;;
65145;SDS011;51730;56.950;24.126;2022-08-25T15:03:12;15.93;;;7.50;;
65145;SDS011;51730;56.950;24.126;2022-08-25T15:05:43;13.25;;;7.22;;
65145;SDS011;51730;56.950;24.126;2022-08-25T15:08:10;13.93;;;6.80;;
65145;SDS011;51730;56.950;24.126;2022-08-25T15:10:58;10.38;;;7.45;;
65145;SDS011;51730;56.950;24.126;2022-08-25T15:13:25;8.98;;;7.20;;
65145;SDS011;51730;56.950;24.126;2022-08-25T15:15:53;11.65;;;7.43;;
65145;SDS011;51730;56.950;24.126;2022-08-25T15:18:23;13.20;;;6.82;;
65145;SDS011;51730;56.950;24.126;2022-08-25T15:20:51;17.27;;;7.55;;
65145;SDS011;51730;56.950;24.126;2022-08-25T15:23:18;15.27;;;7.43;;
65145;SDS011;51730;56.950;24.126;2022-08-25T15:25:47;16.15;;;7.63;;
65145;SDS011;51730;56.950;24.126;2022-08-25T15:30:47;13.80;;;7.28;;
65145;SDS011;51730;56.950;24.126;2022-08-25T15:33:14;12.98;;;6.57;;
65145;SDS011;51730;56.950;24.126;2022-08-25T15:35:42;14.20;;;7.13;;
65145;SDS011;51730;56.950;24.126;2022-08-25T15:38:10;12.32;;;7.88;;
65145;SDS011;51730;56.950;24.126;2022-08-25T15:40:37;9.57;;;7.25;;
65145;SDS011;51730;56.950;24.126;2022-08-25T15:43:05;13.85;;;7.05;;
65145;SDS011;51730;56.950;24.126;2022-08-25T15:45:32;13.38;;;7.25;;
65145;SDS011;51730;56.950;24.126;2022-08-25T15:48:01;9.90;;;7.13;;
65145;SDS011;51730;56.950;24.126;2022-08-25T15:50:35;14.10;;;7.55;;
65145;SDS011;51730;56.950;24.126;2022-08-25T15:53:03;11.43;;;7.20;;
65145;SDS011;51730;56.950;24.126;2022-08-25T15:55:37;13.38;;;7.03;;
65145;SDS011;51730;56.950;24.126;2022-08-25T15:58:04;12.32;;;6.63;;
65145;SDS011;51730;56.950;24.126;2022-08-25T16:00:33;11.00;;;6.65;;
65145;SDS011;51730;56.950;24.126;2022-08-25T16:03:03;15.13;;;7.47;;
65145;SDS011;51730;56.950;24.126;2022-08-25T16:05:39;14.30;;;7.30;;
65145;SDS011;51730;56.950;24.126;2022-08-25T16:08:13;7.75;;;6.65;;
65145;SDS011;51730;56.950;24.126;2022-08-25T16:10:44;11.13;;;6.88;;
65145;SDS011;51730;56.950;24.126;2022-08-25T16:13:12;19.15;;;7.20;;
65145;SDS011;51730;56.950;24.126;2022-08-25T16:15:39;10.18;;;6.78;;
65145;SDS011;51730;56.950;24.126;2022-08-25T16:18:11;12.82;;;6.50;;
65145;SDS011;51730;56.950;24.126;2022-08-25T16:20:38;11.35;;;6.15;;
65145;SDS011;51730;56.950;24.126;2022-08-25T16:23:10;12.07;;;6.65;;
65145;SDS011;51730;56.950;24.126;2022-08-25T16:25:39;14.57;;;7.47;;
65145;SDS011;51730;56.950;24.126;2022-08-25T16:28:08;13.15;;;7.43;;
65145;SDS011;51730;56.950;24.126;2022-08-25T16:30:37;13.48;;;7.30;;
65145;SDS011;51730;56.950;24.126;2022-08-25T16:33:15;12.27;;;6.93;;
65145;SDS011;51730;56.950;24.126;2022-08-25T16:35:42;11.93;;;6.70;;
65145;SDS011;51730;56.950;24.126;2022-08-25T16:38:09;16.20;;;7.45;;
65145;SDS011;51730;56.950;24.126;2022-08-25T16:40:38;11.70;;;6.18;;
65145;SDS011;51730;56.950;24.126;2022-08-25T16:43:06;9.52;;;6.57;;
65145;SDS011;51730;56.950;24.126;2022-08-25T16:45:34;13.73;;;6.60;;
65145;SDS011;51730;56.950;24.126;2022-08-25T16:48:03;9.13;;;6.55;;
65145;SDS011;51730;56.950;24.126;2022-08-25T16:50:31;10.07;;;7.03;;
65145;SDS011;51730;56.950;24.126;2022-08-25T16:52:59;7.93;;;6.15;;
65145;SDS011;51730;56.950;24.126;2022-08-25T16:55:49;13.25;;;6.95;;
65145;SDS011;51730;56.950;24.126;2022-08-25T16:58:26;10.75;;;5.95;;
65145;SDS011;51730;56.950;24.126;2022-08-25T17:00:55;11.60;;;6.55;;
65145;SDS011;51730;56.950;24.126;2022-08-25T17:03:35;9.43;;;5.40;;
65145;SDS011;51730;56.950;24.126;2022-08-25T17:06:09;9.85;;;5.82;;
65145;SDS011;51730;56.950;24.126;2022-08-25T17:08:36;7.78;;;5.38;;
65145;SDS011;51730;56.950;24.126;2022-08-25T17:13:32;9.90;;;5.97;;
65145;SDS011;51730;56.950;24.126;2022-08-25T17:15:59;8.93;;;6.72;;
65145;SDS011;51730;56.950;24.126;2022-08-25T17:18:28;7.72;;;5.32;;
65145;SDS011;51730;56.950;24.126;2022-08-25T17:21:03;9.38;;;5.47;;